createdAt,value
2018-02-05T00:01:27.085Z,74.90
2018-02-05T00:03:58.548Z,74.80
2018-02-05T00:06:29.149Z,75.90
2018-02-05T00:09:00.222Z,75.90
2018-02-05T00:11:31.950Z,75.60
2018-02-05T00:14:01.619Z,75.70
2018-02-05T00:16:32.611Z,75.90
2018-02-05T00:19:02.179Z,75.90
2018-02-05T00:21:32.437Z,75.80
2018-02-05T00:24:01.907Z,75.80
2018-02-05T00:26:32.630Z,76.10
2018-02-05T00:29:02.252Z,76.10
2018-02-05T00:31:32.288Z,76.10
2018-02-05T00:34:02.069Z,75.70
2018-02-05T00:36:34.917Z,75.80
2018-02-05T00:39:04.733Z,75.80
2018-02-05T00:41:34.867Z,75.50
2018-02-05T00:44:04.843Z,75.50
2018-02-05T00:46:35.129Z,75.60
2018-02-05T00:49:05.057Z,75.60
2018-02-05T00:51:36.637Z,75.40
2018-02-05T00:54:17.200Z,75.60
2018-02-05T00:56:47.470Z,75.90
2018-02-05T00:59:17.240Z,75.30
2018-02-05T01:01:48.619Z,75.00
2018-02-05T01:04:20.384Z,75.20
2018-02-05T01:06:50.013Z,75.60
2018-02-05T01:09:20.280Z,75.60
2018-02-05T01:11:55.372Z,75.50
2018-02-05T01:14:25.231Z,75.50
2018-02-05T01:16:55.072Z,75.30
2018-02-05T01:19:26.310Z,75.50
2018-02-05T01:21:55.864Z,75.50
2018-02-05T01:24:25.920Z,75.70
2018-02-05T01:26:55.742Z,75.40
2018-02-05T01:29:25.335Z,75.20
2018-02-05T01:31:54.910Z,75.00
2018-02-05T01:34:25.317Z,75.20
2018-02-05T01:36:55.707Z,75.00
2018-02-05T01:39:26.089Z,75.00
2018-02-05T01:41:55.909Z,75.20
2018-02-05T01:44:25.468Z,75.30
2018-02-05T01:46:55.141Z,75.40
2018-02-05T01:49:25.239Z,75.40
2018-02-05T01:51:56.710Z,75.40
2018-02-05T01:54:30.396Z,75.20
2018-02-05T01:57:01.367Z,75.20
2018-02-05T01:59:31.689Z,75.50
2018-02-05T02:02:01.819Z,75.10
2018-02-05T02:04:31.467Z,75.60
2018-02-05T02:07:01.943Z,75.80
2018-02-05T02:09:31.572Z,75.80
2018-02-05T02:12:04.602Z,75.80
2018-02-05T02:14:34.948Z,75.70
2018-02-05T02:17:04.458Z,75.70
2018-02-05T02:19:34.489Z,76.00
2018-02-05T02:22:04.147Z,76.00
2018-02-05T02:24:34.634Z,75.90
2018-02-05T02:27:04.604Z,75.90
2018-02-05T02:29:34.143Z,75.60
2018-02-05T02:32:03.702Z,75.60
2018-02-05T02:34:33.627Z,75.70
2018-02-05T02:37:03.776Z,75.50
2018-02-05T02:39:33.421Z,75.40
2018-02-05T02:42:03.024Z,75.40
2018-02-05T02:44:32.614Z,75.70
2018-02-05T02:47:02.797Z,75.60
2018-02-05T02:49:32.936Z,75.80
2018-02-05T02:52:02.766Z,75.80
2018-02-05T02:54:33.283Z,76.00
2018-02-05T02:57:02.889Z,76.00
2018-02-05T02:59:32.354Z,75.90
2018-02-05T03:02:01.893Z,75.60
2018-02-05T03:04:32.157Z,75.60
2018-02-05T03:07:01.721Z,75.70
2018-02-05T03:09:31.188Z,75.40
2018-02-05T03:12:01.562Z,75.20
2018-02-05T03:14:33.061Z,75.30
2018-02-05T03:17:03.532Z,75.40
2018-02-05T03:19:33.338Z,75.40
2018-02-05T03:22:03.291Z,75.90
2018-02-05T04:08:18.871Z,76.10
2018-02-05T04:10:49.983Z,78.10
2018-02-05T04:13:20.470Z,78.00
2018-02-05T04:15:50.119Z,78.00
2018-02-05T04:18:20.746Z,78.00
2018-02-05T04:20:51.062Z,77.80
2018-02-05T04:23:20.725Z,77.40
2018-02-05T04:25:51.717Z,77.30
2018-02-05T04:28:21.278Z,77.40
2018-02-05T04:30:50.812Z,77.00
2018-02-05T04:33:20.527Z,76.70
2018-02-05T04:35:50.542Z,76.60
2018-02-05T04:38:19.982Z,76.50
2018-02-05T04:40:49.800Z,76.00
2018-02-05T04:43:19.428Z,75.80
2018-02-05T04:45:49.680Z,75.50
2018-02-05T04:48:19.564Z,75.50
2018-02-05T04:50:49.000Z,76.00
2018-02-05T04:53:18.588Z,76.00
2018-02-05T04:55:49.661Z,76.20
2018-02-05T04:58:19.510Z,76.20
2018-02-05T05:00:49.026Z,76.10
2018-02-05T05:03:18.515Z,76.20
2018-02-05T05:05:48.159Z,76.50
2018-02-05T05:08:17.615Z,76.70
2018-02-05T05:10:47.221Z,76.90
2018-02-05T05:13:16.831Z,76.80
2018-02-05T05:15:46.737Z,77.40
2018-02-05T05:18:17.528Z,77.50
2018-02-05T05:20:46.988Z,77.20
2018-02-05T05:23:16.532Z,77.30
2018-02-05T05:25:46.514Z,77.60
2018-02-05T05:28:16.105Z,77.80
2018-02-05T05:30:45.793Z,77.60
2018-02-05T05:33:16.454Z,77.80
2018-02-05T05:35:45.947Z,77.70
2018-02-05T05:38:15.474Z,77.80
2018-02-05T05:40:45.316Z,78.20
2018-02-05T05:43:14.910Z,77.90
2018-02-05T05:45:44.418Z,78.20
2018-02-05T05:48:14.085Z,78.50
2018-02-05T05:50:45.755Z,78.80
2018-02-05T05:53:15.263Z,78.40
2018-02-05T05:55:45.380Z,78.40
2018-02-05T05:58:16.057Z,78.20
2018-02-05T06:00:45.987Z,78.20
2018-02-05T06:03:15.674Z,78.00
2018-02-05T06:05:45.407Z,78.00
2018-02-05T06:08:16.442Z,77.80
2018-02-05T06:10:47.410Z,77.20
2018-02-05T06:13:19.271Z,77.20
2018-02-05T06:16:13.856Z,77.00
2018-02-05T06:18:54.876Z,76.90
2018-02-05T06:21:25.248Z,76.90
2018-02-05T06:23:55.323Z,77.40
2018-02-05T06:26:26.287Z,77.60
2018-02-05T06:29:03.576Z,77.60
2018-02-05T06:31:48.521Z,77.70
2018-02-05T06:34:18.479Z,78.20
2018-02-05T06:36:49.154Z,78.20
2018-02-05T06:39:20.968Z,78.70
2018-02-05T06:41:53.570Z,78.50
2018-02-05T06:44:28.199Z,78.20
2018-02-05T06:46:57.730Z,78.30
2018-02-05T06:49:27.525Z,78.30
2018-02-05T06:52:24.157Z,78.20
2018-02-05T06:55:04.695Z,78.20
2018-02-05T06:57:37.395Z,78.00
2018-02-05T07:00:20.860Z,77.90
2018-02-05T07:02:51.605Z,78.30
2018-02-05T07:05:21.261Z,78.20
2018-02-05T07:07:51.156Z,78.00
2018-02-05T07:10:27.880Z,78.60
2018-02-05T07:12:57.634Z,78.60
2018-02-05T07:15:28.545Z,78.40
2018-02-05T07:17:58.000Z,78.50
2018-02-05T07:20:28.004Z,78.40
2018-02-05T07:22:58.432Z,78.60
2018-02-05T07:25:28.225Z,78.40
2018-02-05T07:27:58.716Z,78.20
2018-02-05T07:30:29.166Z,78.10
2018-02-05T07:33:04.078Z,78.40
2018-02-05T07:35:34.800Z,78.40
2018-02-05T07:38:04.907Z,78.20
2018-02-05T07:40:34.606Z,78.20
2018-02-05T07:43:09.586Z,78.10
2018-02-05T07:45:40.576Z,78.20
2018-02-05T07:48:13.472Z,78.20
2018-02-05T07:50:43.336Z,78.00
2018-02-05T07:53:13.080Z,77.70
2018-02-05T07:55:44.120Z,77.40
2018-02-05T07:58:16.330Z,76.80
2018-02-05T08:00:46.571Z,77.40
2018-02-05T08:03:20.607Z,77.10
2018-02-05T08:05:50.459Z,76.80
2018-02-05T08:08:20.177Z,76.50
2018-02-05T08:10:50.603Z,76.60
2018-02-05T08:13:23.525Z,76.30
2018-02-05T08:15:53.537Z,76.50
2018-02-05T08:18:24.876Z,76.60
2018-02-05T08:21:00.377Z,76.10
2018-02-05T08:23:30.463Z,76.10
2018-02-05T08:26:15.624Z,76.00
2018-02-05T08:28:48.573Z,75.90
2018-02-05T08:31:18.268Z,75.70
2018-02-05T08:33:51.173Z,75.30
2018-02-05T08:36:21.433Z,75.10
2018-02-05T08:38:51.250Z,75.00
2018-02-05T08:41:21.954Z,74.20
2018-02-05T08:43:53.780Z,74.60
2018-02-05T08:46:23.728Z,74.40
2018-02-05T08:48:54.458Z,73.90
2018-02-05T08:54:38.797Z,74.00
2018-02-05T08:57:24.579Z,73.90
2018-02-05T08:59:58.002Z,73.20
2018-02-05T09:02:33.457Z,73.80
2018-02-05T09:11:23.298Z,73.00
2018-02-05T09:13:56.982Z,72.70
2018-02-05T09:16:44.771Z,73.00
2018-02-05T09:19:18.611Z,73.00
2018-02-05T09:24:49.210Z,72.70
2018-02-05T09:30:17.296Z,72.30
2018-02-05T09:32:55.302Z,72.50
2018-02-05T09:35:48.158Z,71.50
2018-02-05T09:38:18.112Z,72.00
2018-02-05T09:40:54.573Z,72.30
2018-02-05T09:46:39.901Z,69.70
2018-02-05T09:49:15.897Z,69.60
2018-02-05T09:51:46.983Z,70.20
2018-02-05T09:54:59.350Z,70.00
2018-02-05T10:00:53.740Z,69.80
2018-02-05T10:03:24.641Z,69.80
2018-02-05T10:05:54.280Z,70.20
2018-02-05T10:08:30.456Z,70.00
2018-02-05T10:11:05.341Z,69.20
2018-02-05T10:13:49.256Z,68.20
2018-02-05T10:16:24.824Z,67.90
2018-02-05T10:21:56.723Z,66.80
2018-02-05T10:24:30.894Z,66.70
2018-02-05T10:27:18.450Z,66.60
2018-02-05T10:29:50.252Z,66.20
2018-02-05T10:32:21.243Z,66.40
2018-02-05T10:34:53.000Z,67.10
2018-02-05T10:37:24.997Z,66.60
2018-02-05T10:40:00.971Z,65.00
2018-02-05T10:42:30.951Z,64.60
2018-02-05T10:45:05.587Z,64.70
2018-02-05T10:47:35.414Z,62.80
2018-02-05T10:50:05.663Z,63.40
2018-02-05T10:52:36.992Z,62.60
2018-02-05T10:55:07.815Z,63.20
2018-02-05T10:57:41.653Z,62.00
2018-02-05T11:00:13.417Z,62.40
2018-02-05T11:02:47.059Z,63.10
